Spruce Pine, North Carolina
Current Conditions -  °F | °C
As of 2:55 PM on Friday 24 Oct 2014 (Local Time) from KMRN Reporting Station
Clear Clear  
Wind Chill: 67°   Ceiling: Unl
Heat Index: 67°   Visibility: 10mi
Dew Point: 37°   Wind: 0mph
Humidity: 32%   Direction: NA
Pressure: 30.06"   Gusts: NA
Location:  35.92°N, 82.06°W
Report Text: KMRN 241855Z AUTO 00000KT 10SM CLR 20/03 A3006 RMK AO2 T01970025
Loading
Personal Weather Stations






























Interactive Weather Map
Tropical Storm Tracking
New forecast layout! Learn more

10-Day Weather Forecast

Advertisements
Track Severe Weather on mobile